Latest Weather Observations for Leigh Creek

IDS60801

Issued at 9:51 pm CST Friday 20 July 2018 (issued every 10 minutes, with the page automatically refreshed every 10 minutes)

About weather observations | Map of weather stations | Latest weather observations for SA | Other Formats
Station Details ID: 017110 Name: LEIGH CREEK AIRPORT Lat: -30.60 Lon: 138.42 Height: 258.8 m
Data from the previous 72 hours. | See also: Recent months at Leigh Creek
Date/Time
CST
Temp
°C
App
Temp
°C
Dew
Point
°C
Rel
Hum
%
Delta-T
°C
Wind Press
QNH
hPa
Press
MSL
hPa
Rain since
9am
mm
Dir  Spd
km/h
Gust
km/h
Spd
kts
Gust
kts
20/09:30pm 9.7 8.5 4.5 70 2.3 CALM 0 7 0 4 1024.1 1024.4 0.2
20/09:00pm 10.4 9.2 4.5 67 2.7 CALM 0 0 0 0 1024.0 1024.3 0.2
20/08:30pm 10.4 9.3 5.0 69 2.5 CALM 0 0 0 0 1023.9 1024.2 0.2
20/08:00pm 10.5 9.4 4.9 68 2.6 CALM 0 0 0 0 1023.9 1024.2 0.2
20/07:30pm 10.9 9.7 4.4 64 2.9 CALM 0 0 0 0 1023.8 1024.1 0.2
20/07:00pm 11.2 10.0 4.7 64 3.0 CALM 0 0 0 0 1023.5 1023.7 0.2
20/06:30pm 11.4 8.7 3.7 59 3.4 S 7 11 4 6 1023.1 1023.3 0.2
20/06:00pm 11.5 8.4 3.8 59 3.5 S 9 11 5 6 1022.9 1023.1 0.2
20/05:30pm 11.7 8.2 3.5 57 3.7 S 11 13 6 7 1022.7 1022.9 0.2
20/05:00pm 12.4 9.3 3.6 55 4.0 S 9 11 5 6 1022.3 1022.5 0.2
20/04:30pm 12.1 8.5 3.1 54 4.0 S 11 13 6 7 1022.1 1022.3 0.2
20/04:00pm 12.2 9.1 3.4 55 4.0 S 9 17 5 9 1022.1 1022.3 0.2
20/03:30pm 12.2 8.3 3.4 55 3.9 SSW 13 17 7 9 1022.1 1022.3 0.2
20/03:00pm 12.7 8.8 3.4 53 4.2 S 13 20 7 11 1021.9 1022.1 0.2
20/02:30pm 12.4 8.0 2.8 52 4.3 S 15 22 8 12 1022.0 1022.2 0.2
20/02:00pm 12.8 9.1 4.3 56 3.9 SSW 13 19 7 10 1022.1 1022.3 0.0
20/01:30pm 12.2 7.0 3.4 55 3.9 SSW 20 26 11 14 1022.2 1022.4 0.0
20/01:00pm 12.7 7.2 3.9 55 4.0 SW 22 33 12 18 1022.6 1022.8 0.0
20/12:30pm 12.2 6.7 3.9 57 3.8 SSW 22 32 12 17 1022.7 1022.9 0.0
20/12:00pm 11.5 6.7 4.7 63 3.1 SSW 19 30 10 16 1022.9 1023.1 0.0
20/11:30am 10.7 7.5 5.3 69 2.5 S 11 19 6 10 1023.2 1023.4 0.0
20/11:00am 10.0 6.5 5.4 73 2.1 SSW 13 19 7 10 1023.3 1023.5 0.0
20/10:30am 8.8 5.9 4.8 76 1.8 SSW 9 13 5 7 1023.3 1023.5 0.0
20/10:00am 8.6 7.1 4.8 77 1.7 SE 2 11 1 6 1023.3 1023.5 0.0
20/09:30am 8.3 7.2 5.1 80 1.4 CALM 0 0 0 0 1023.2 1023.4 0.0
20/09:00am 6.5 5.6 6.2 98 0.1 CALM 0 0 0 0 1023.0 1023.2 3.2
20/08:30am 4.9 3.7 4.8 99 0.0 CALM 0 0 0 0 1022.3 1022.5 3.2
20/08:00am 3.6 2.2 3.5 99 0.0 CALM 0 0 0 0 1022.0 1022.2 3.2
20/07:30am 2.8 1.2 2.7 99 0.0 CALM 0 0 0 0 1021.8 1022.0 3.2
20/07:00am 4.1 2.8 4.0 99 0.0 CALM 0 0 0 0 1021.4 1021.6 3.2
20/06:30am 3.5 2.0 3.1 97 0.2 CALM 0 0 0 0 1021.1 1021.3 3.2
20/06:00am 3.9 2.5 3.5 97 0.2 CALM 0 0 0 0 1020.5 1020.8 3.2
20/05:30am 4.3 1.8 3.7 96 0.3 SE 6 7 3 4 1020.1 1020.3 3.2
20/05:00am 4.2 1.5 3.5 95 0.3 SE 7 9 4 5 1019.8 1020.0 3.2
20/04:30am 4.8 2.4 4.1 95 0.3 SE 6 9 3 5 1019.3 1019.5 3.2
20/04:00am 4.4 1.2 3.2 92 0.5 SE 9 11 5 6 1019.0 1019.2 3.2
20/03:30am 5.3 2.6 3.6 89 0.7 S 7 9 4 5 1018.7 1018.9 3.2
20/03:00am 6.3 3.6 3.8 84 1.1 S 7 13 4 7 1018.5 1018.7 3.2
20/02:30am 6.9 2.0 3.9 81 1.3 SW 19 24 10 13 1018.3 1018.5 3.2
20/02:00am 6.5 2.0 4.3 86 1.0 SSW 17 24 9 13 1018.4 1018.6 3.2
20/01:30am 7.4 0.8 4.2 80 1.4 SSW 28 41 15 22 1018.0 1018.2 3.2
20/01:00am 7.5 0.0 4.3 80 1.4 SW 33 46 18 25 1017.5 1017.7 3.2
20/12:30am 7.6 0.0 4.0 78 1.6 SW 33 48 18 26 1017.5 1017.7 3.2
20/12:00am 7.8 -0.1 4.4 79 1.5 SW 35 48 19 26 1017.2 1017.3 3.2
 
Date/Time
CST
Temp
°C
App
Temp
°C
Dew
Point
°C
Rel
Hum
%
Delta-T
°C
Wind Press
QNH
hPa
Press
MSL
hPa
Rain since
9am
mm
Dir  Spd
km/h
Gust
km/h
Spd
kts
Gust
kts
19/11:30pm 7.9 0.4 4.3 78 1.6 SW 33 48 18 26 1017.0 1017.1 3.2
19/11:00pm 8.1 0.9 4.9 80 1.4 SW 32 46 17 25 1017.0 1017.1 3.2
19/10:30pm 8.4 1.2 5.2 80 1.4 SW 32 41 17 22 1016.9 1017.0 3.2
19/10:00pm 8.2 3.0 5.3 82 1.3 SW 22 30 12 16 1016.7 1016.8 3.2
19/09:30pm 7.8 3.5 7.1 95 0.3 SSW 19 22 10 12 1016.4 1016.6 3.0
19/09:00pm 7.9 1.2 7.5 97 0.2 SSW 32 43 17 23 1016.7 1016.8 3.0
19/08:36pm 8.3 0.3 7.5 95 0.4 SSW 39 57 21 31 1016.1 1016.3 2.8
19/08:30pm 8.5 -0.2 7.9 96 0.3 SSW 43 59 23 32 1015.8 1016.0 2.4
19/08:00pm 9.0 1.5 7.9 93 0.5 SSW 37 56 20 30 1015.6 1015.8 0.8
19/07:30pm 11.4 1.2 6.9 74 2.2 SW 50 70 27 38 1014.7 1014.9 0.0
19/07:00pm 13.3 3.0 6.4 63 3.3 SW 50 74 27 40 1013.4 1013.5 0.0
19/06:55pm 14.0 4.8 6.4 60 3.7 WSW 44 74 24 40 1013.1 1013.2 0.0
19/06:53pm 14.8 6.4 5.6 54 4.4 WSW 39 72 21 39 1012.9 1013.0 0.0
19/06:31pm 17.6 8.4 -1.6 27 8.1 WSW 37 57 20 31 1012.0 1012.2 0.0
19/06:30pm 17.6 8.4 -1.6 27 8.2 WSW 37 52 20 28 1011.9 1012.1 0.0
19/06:15pm 17.9 9.9 -2.4 25 8.5 W 30 48 16 26 1011.7 1011.9 0.0
19/06:00pm 17.9 9.4 -2.9 24 8.6 W 32 46 17 25 1011.5 1011.7 0.0
19/05:34pm 18.6 10.7 -1.3 26 8.6 W 30 48 16 26 1011.3 1011.5 0.0
19/05:30pm 18.7 10.5 -1.2 26 8.6 W 32 48 17 26 1011.3 1011.5 0.0
19/05:00pm 19.4 12.2 0.4 28 8.5 W 28 41 15 22 1010.9 1011.1 0.0
19/04:30pm 20.2 14.1 0.1 26 9.0 WNW 22 33 12 18 1010.6 1010.7 0.0
19/04:00pm 20.2 12.9 0.1 26 9.0 W 28 39 15 21 1010.8 1011.0 0.0
19/03:30pm 20.8 14.3 0.6 26 9.2 W 24 39 13 21 1010.7 1010.9 0.0
19/03:00pm 20.5 14.7 -0.2 25 9.3 W 20 35 11 19 1010.9 1011.1 0.0
19/02:30pm 21.0 15.2 0.2 25 9.4 WNW 20 30 11 16 1011.0 1011.2 0.0
19/02:00pm 20.4 14.9 0.3 26 9.1 W 19 32 10 17 1011.5 1011.7 0.0
19/01:30pm 20.3 14.5 0.2 26 9.1 W 20 32 11 17 1011.8 1012.0 0.0
19/01:00pm 19.8 14.2 -0.2 26 8.9 WNW 19 26 10 14 1012.3 1012.5 0.0
19/12:30pm 19.6 15.0 -0.9 25 9.0 WNW 13 20 7 11 1013.1 1013.2 0.0
19/12:00pm 19.7 14.0 -0.9 25 9.0 W 19 24 10 13 1013.8 1013.9 0.0
19/11:30am 19.0 13.0 -1.4 25 8.8 W 20 26 11 14 1014.3 1014.5 0.0
19/11:00am 18.3 13.3 -1.5 26 8.5 NNW 15 22 8 12 1014.7 1014.9 0.0
19/10:30am 17.2 12.2 -1.4 28 7.9 N 15 22 8 12 1015.0 1015.2 0.0
19/10:00am 16.1 11.2 -0.6 32 7.1 N 15 20 8 11 1015.5 1015.7 0.0
19/09:30am 15.1 9.9 -0.2 35 6.5 N 17 22 9 12 1015.6 1015.8 0.0
19/09:00am 14.6 8.4 -0.3 36 6.3 NW 22 28 12 15 1015.9 1016.1 0.0
19/08:30am 13.6 8.5 0.9 42 5.5 NW 17 20 9 11 1015.4 1015.6 0.0
19/08:00am 9.9 5.5 0.5 52 3.9 NNW 13 15 7 8 1014.9 1015.1 0.0
19/07:30am 7.4 2.2 -0.1 59 3.0 NNW 17 19 9 10 1014.8 1015.0 0.0
19/07:00am 7.1 1.5 -0.1 60 2.8 NNW 19 20 10 11 1014.8 1015.0 0.0
19/06:30am 6.8 1.1 -0.6 59 2.9 NNW 19 24 10 13 1014.8 1015.0 0.0
19/06:00am 6.5 1.9 -1.2 58 2.9 WNW 13 17 7 9 1014.8 1015.0 0.0
19/05:30am 7.3 3.5 -1.1 55 3.2 WNW 9 13 5 7 1014.7 1014.9 0.0
19/05:00am 7.9 5.8 -0.6 55 3.3 CALM 0 6 0 3 1014.8 1015.0 0.0
19/04:30am 7.5 5.0 -0.7 56 3.2 WNW 2 7 1 4 1014.8 1015.0 0.0
19/04:00am 8.4 5.0 -0.4 54 3.5 WNW 7 11 4 6 1015.0 1015.2 0.0
19/03:30am 6.1 2.8 -1.3 59 2.8 WNW 6 7 3 4 1015.4 1015.6 0.0
19/03:00am 6.0 2.6 -1.9 57 2.9 WNW 6 7 3 4 1015.5 1015.7 0.0
19/02:30am 6.7 3.2 -1.2 57 3.0 WNW 7 9 4 5 1015.9 1016.1 0.0
19/02:00am 7.4 3.5 -1.3 54 3.3 WNW 9 11 5 6 1016.2 1016.4 0.0
19/01:30am 7.4 3.6 -1.0 55 3.3 WNW 9 13 5 7 1016.6 1016.7 0.0
19/01:00am 6.8 2.9 -1.8 54 3.2 WNW 9 11 5 6 1016.9 1017.0 0.0
19/12:30am 6.9 2.6 -2.0 53 3.3 WNW 11 13 6 7 1017.2 1017.3 0.0
19/12:00am 7.2 3.3 -1.7 53 3.4 WNW 9 13 5 7 1017.3 1017.5 0.0
 
Date/Time
CST
Temp
°C
App
Temp
°C
Dew
Point
°C
Rel
Hum
%
Delta-T
°C
Wind Press
QNH
hPa
Press
MSL
hPa
Rain since
9am
mm
Dir  Spd
km/h
Gust
km/h
Spd
kts
Gust
kts
18/11:30pm 7.1 2.4 -2.1 52 3.5 WNW 13 15 7 8 1017.3 1017.5 0.0
18/11:00pm 7.6 3.2 -2.1 50 3.7 WNW 11 13 6 7 1017.4 1017.6 0.0
18/10:30pm 8.4 4.9 -1.4 50 3.8 WNW 7 9 4 5 1017.6 1017.8 0.0
18/10:00pm 8.7 4.1 -0.9 51 3.8 WNW 13 15 7 8 1017.6 1017.8 0.0
18/09:30pm 9.2 5.7 -1.2 48 4.1 WNW 7 9 4 5 1017.8 1018.0 0.0
18/09:00pm 8.8 6.5 -2.5 45 4.3 CALM 0 4 0 2 1018.0 1018.2 0.0
18/08:30pm 11.2 7.8 -0.6 44 4.8 WNW 7 7 4 4 1018.1 1018.3 0.0
18/08:00pm 10.3 7.3 -1.7 43 4.7 WNW 4 13 2 7 1017.8 1018.0 0.0
18/07:30pm 13.6 11.3 0.6 41 5.6 WNW 2 6 1 3 1017.6 1017.8 0.0
18/07:00pm 13.5 9.8 -0.2 39 5.8 WNW 9 11 5 6 1017.4 1017.6 0.0
18/06:30pm 14.6 9.7 -0.3 36 6.3 WNW 15 17 8 9 1017.4 1017.6 0.0
18/06:00pm 15.5 11.4 -0.3 34 6.7 WNW 11 13 6 7 1017.2 1017.3 0.0
18/05:30pm 17.8 13.0 0.0 30 7.8 NW 15 19 8 10 1017.0 1017.1 0.0
18/05:00pm 19.5 13.8 -0.5 26 8.8 WNW 19 26 10 14 1017.1 1017.2 0.0
18/04:30pm 20.4 15.7 0.8 27 8.9 NW 15 24 8 13 1016.9 1017.0 0.0
18/04:00pm 20.5 15.9 1.4 28 8.8 NW 15 24 8 13 1017.2 1017.3 0.0
18/03:30pm 20.6 15.2 1.5 28 8.8 NW 19 30 10 16 1017.6 1017.8 0.0
18/03:00pm 20.3 15.7 1.7 29 8.6 WNW 15 28 8 15 1017.8 1018.0 0.0
18/02:30pm 19.7 13.8 1.7 30 8.3 W 22 30 12 16 1018.0 1018.2 0.0
18/02:00pm 20.5 15.4 0.9 27 9.0 WNW 17 30 9 16 1018.2 1018.4 0.0
18/01:30pm 19.8 14.6 0.3 27 8.7 NW 17 28 9 15 1018.6 1018.8 0.0
18/01:00pm 19.6 14.7 2.0 31 8.2 NNW 17 24 9 13 1018.8 1019.0 0.0
18/12:30pm 19.0 14.4 1.5 31 8.0 NW 15 22 8 12 1019.2 1019.4 0.0
18/12:00pm 18.8 14.3 2.2 33 7.7 NNW 15 24 8 13 1019.7 1019.9 0.0
18/11:30am 18.5 13.7 2.8 35 7.3 NNW 17 24 9 13 1020.1 1020.3 0.0
18/11:00am 18.0 12.8 2.7 36 7.1 N 19 24 10 13 1020.4 1020.6 0.0
18/10:30am 17.4 13.7 2.6 37 6.8 NNW 11 15 6 8 1020.8 1021.0 0.0
18/10:00am 15.6 13.5 1.7 39 6.2 SE 2 7 1 4 1021.0 1021.2 0.0
18/09:30am 13.6 11.8 1.3 43 5.3 CALM 0 0 0 0 1020.8 1021.0 0.0
18/09:00am 11.0 9.1 0.7 49 4.3 CALM 0 0 0 0 1020.7 1020.9 0.0
18/08:30am 8.1 6.1 -0.4 55 3.4 CALM 0 0 0 0 1020.3 1020.5 0.0
18/08:00am 5.5 3.3 -1.4 61 2.6 CALM 0 0 0 0 1020.0 1020.2 0.0
18/07:30am 3.9 1.6 -2.3 64 2.2 CALM 0 0 0 0 1019.9 1020.1 0.0
18/07:00am 4.5 1.9 -1.7 64 2.3 SE 2 7 1 4 1019.6 1019.8 0.0
18/06:30am 4.5 0.9 -2.1 62 2.4 SE 7 9 4 5 1019.4 1019.6 0.0
18/06:00am 4.2 0.6 -2.4 62 2.4 SE 7 9 4 5 1019.3 1019.5 0.0
18/05:30am 4.5 0.9 -2.4 61 2.5 SE 7 11 4 6 1019.1 1019.3 0.0
18/05:00am 4.8 1.2 -2.3 60 2.6 SE 7 11 4 6 1019.2 1019.4 0.0
18/04:30am 4.9 1.5 -2.2 60 2.6 SE 6 9 3 5 1019.1 1019.3 0.0
18/04:00am 4.6 0.9 -2.5 60 2.6 SE 7 9 4 5 1019.1 1019.3 0.0
18/03:30am 4.9 1.5 -2.4 59 2.6 SE 6 9 3 5 1019.3 1019.5 0.0
18/03:00am 5.6 2.0 -2.0 58 2.8 SE 7 11 4 6 1019.2 1019.4 0.0
18/02:30am 5.2 1.6 -2.4 58 2.8 SE 7 11 4 6 1019.3 1019.5 0.0
18/02:00am 4.5 0.8 -2.6 60 2.6 SE 7 11 4 6 1019.5 1019.7 0.0
18/01:30am 4.6 0.5 -2.7 59 2.6 SE 9 11 5 6 1019.5 1019.7 0.0
18/01:00am 6.9 3.1 -0.8 58 3.0 SE 9 11 5 6 1019.4 1019.6 0.0
18/12:30am 7.9 3.7 -0.6 55 3.3 S 11 13 6 7 1019.3 1019.5 0.0
18/12:00am 8.6 4.5 0.1 55 3.4 S 11 13 6 7 1019.5 1019.7 0.0
 
Date/Time
CST
Temp
°C
App
Temp
°C
Dew
Point
°C
Rel
Hum
%
Delta-T
°C
Wind Press
QNH
hPa
Press
MSL
hPa
Rain since
9am
mm
Dir  Spd
km/h
Gust
km/h
Spd
kts
Gust
kts
17/11:30pm 9.0 5.3 -0.3 52 3.7 S 9 13 5 7 1019.4 1019.6 0.0
17/11:00pm 9.6 6.4 0.5 53 3.7 S 7 9 4 5 1019.4 1019.6 0.0
17/10:30pm 9.4 6.3 0.3 53 3.7 S 6 7 3 4 1019.1 1019.3 0.0
17/10:00pm 11.6 8.1 1.5 50 4.3 S 9 11 5 6 1018.8 1019.0 0.0

Other Formats:

Comma delimited format used in spreadsheet applications
http://www.bom.gov.au/fwo/IDS60801/IDS60801.94674.axf

JavaScript Object Notation format (JSON) in row-major order
http://www.bom.gov.au/fwo/IDS60801/IDS60801.94674.json